Date,TemperatureHighF,TemperatureAvgF,TemperatureLowF,DewpointHighF,DewpointAvgF,DewpointLowF,HumidityHigh,HumidityAvg,HumidityLow,PressureMaxIn,PressureMinIn,WindSpeedMaxMPH,WindSpeedAvgMPH,GustSpeedMaxMPH,PrecipitationSumIn
2014-1-1,40.3,36.7,29.1,38.1,30.6,16.1,92,80,49,30.49,29.65,6,3,6,0.00
2014-1-2,29.5,21.9,11.2,21.8,14.9,3.8,80,74,71,30.34,29.81,21,7,21,0.00
2014-1-3,17.9,11.2,5.7,6.1,1.0,-7.3,81,64,45,30.55,29.78,25,6,25,0.01
2014-1-4,29.9,20.0,9.2,17.2,8.9,-2.6,71,62,47,30.61,30.37,15,4,15,0.01
2014-1-5,36.2,27.5,17.9,33.2,20.8,10.0,90,76,61,30.41,29.83,4,1,4,0.00
2014-1-6,48.9,40.9,35.3,48.1,36.7,23.5,98,86,61,29.83,29.43,16,3,16,0.43
2014-1-7,35.5,35.5,35.5,25.2,25.2,25.2,66,66,66,29.62,29.62,4,4,4,0.43
2014-1-8,35.5,35.5,35.5,25.2,25.2,25.2,66,66,66,29.62,29.62,4,4,4,0.43
2014-1-9,35.5,35.5,35.5,25.2,25.2,25.2,66,66,66,29.62,29.62,4,4,4,0.43
2014-1-10,35.5,35.5,35.5,25.2,25.2,25.2,66,66,66,29.62,29.62,4,4,4,0.43
2014-1-11,49.0,45.8,35.5,47.0,41.8,25.2,93,87,66,29.62,29.37,5,2,4,0.44
2014-1-12,69.1,45.0,34.8,47.0,40.0,-49.2,93,83,59,30.76,23.77,12,2,12,0.00
2014-1-13,45.1,38.3,30.8,37.8,32.2,26.1,84,79,67,30.22,29.96,5,2,5,0.00
2014-1-14,44.6,40.9,37.7,42.1,38.1,33.3,94,90,81,29.96,29.73,4,1,4,0.33
2014-1-15,41.6,37.9,33.2,37.9,34.5,29.3,91,88,85,30.08,29.90,4,1,4,0.01
2014-1-16,39.2,36.7,35.2,36.1,31.2,27.8,91,80,72,30.02,29.92,12,3,12,0.00
2014-1-17,36.1,36.1,36.1,29.5,29.5,29.5,77,77,77,29.97,29.97,1,1,1,0.00
2014-1-18,36.1,32.4,29.7,29.5,24.1,21.0,77,71,68,30.00,29.81,8,3,8,0.00
2014-1-19,37.5,32.0,27.2,25.6,21.7,17.6,71,66,59,30.12,29.70,16,4,16,0.00
2014-1-20,37.7,33.2,30.0,27.3,19.9,13.0,71,58,51,29.99,29.73,12,4,12,0.00
2014-1-21,29.8,18.4,10.6,13.1,7.0,-5.3,75,62,44,30.12,29.94,15,6,15,0.00
2014-1-22,18.6,10.8,2.3,1.9,-5.0,-11.1,54,49,40,29.98,29.87,18,8,18,0.02
2014-1-23,15.5,15.5,15.5,0.5,0.5,0.5,51,51,51,29.98,29.98,0,0,0,0.02
2014-1-24,15.5,15.5,15.5,0.5,0.5,0.5,51,51,51,29.98,29.98,0,0,0,0.02
2014-1-25,59.5,25.7,-3.8,38.0,17.1,-57.5,77,70,51,30.25,23.89,6,2,6,0.02
2014-1-26,30.3,23.5,17.0,19.7,10.5,4.0,75,58,34,30.00,29.51,12,3,12,0.02
2014-1-27,43.1,29.7,20.4,30.0,15.2,-1.9,75,56,33,30.17,29.67,17,3,17,0.05
2014-1-28,23.9,19.0,12.9,4.0,-2.1,-8.3,51,39,28,30.45,30.17,14,2,14,0.00
2014-1-29,29.2,22.5,15.9,9.0,3.0,-3.4,66,44,27,30.31,30.14,9,2,9,0.01
2014-1-30,27.5,24.8,23.3,15.4,11.3,3.5,65,57,42,30.35,30.27,4,3,4,0.01
2014-1-31,42.6,33.9,24.9,28.1,19.8,13.0,68,57,40,30.27,30.16,7,2,7,0.01
2014-2-1,44.9,39.2,32.6,30.9,27.5,22.4,76,63,46,30.42,29.65,12,2,16,0.08
2014-2-2,44.5,39.2,33.2,37.5,33.1,20.2,83,79,72,30.24,29.55,9,1,9,0.00
2014-2-3,40.4,32.4,28.8,34.7,26.7,21.5,87,80,70,30.41,30.16,12,4,12,0.01
2014-2-4,38.7,30.6,22.5,26.3,20.7,-9.4,77,67,49,30.62,30.19,8,2,8,0.22
2014-2-5,35.9,31.3,27.8,31.2,26.4,20.2,87,82,66,30.35,29.73,8,2,8,0.00
2014-2-6,33.7,27.5,21.7,23.4,17.9,13.9,79,67,52,30.38,30.06,12,3,12,0.05
2014-2-7,39.9,29.6,21.6,21.8,16.1,11.2,71,59,35,30.40,30.26,9,3,9,0.07
2014-2-8,33.1,29.5,24.7,18.7,14.6,6.3,64,54,33,30.34,30.21,6,2,6,0.13
2014-2-9,28.5,26.7,24.7,22.7,17.3,9.5,79,68,52,30.21,30.06,4,2,4,0.18
2014-2-10,33.7,25.6,19.4,21.0,12.4,7.7,76,58,38,30.36,30.05,18,3,18,0.00
2014-2-11,31.4,21.9,14.9,10.5,6.6,3.8,65,52,36,30.57,30.35,14,3,14,0.00
2014-2-12,48.4,21.4,11.0,15.8,6.7,-22.3,67,54,33,30.68,30.19,13,4,13,0.00
2014-2-13,48.0,28.5,-43.4,34.5,24.1,-52.6,92,83,66,31.14,26.04,23,7,23,0.00
2014-2-14,44.9,36.1,29.5,36.2,29.9,25.5,96,79,57,29.85,29.06,16,2,16,0.00
2014-2-15,54.6,32.9,5.0,46.7,26.0,-35.0,87,76,62,30.71,23.72,17,3,17,0.00
2014-2-16,29.8,28.8,20.6,20.1,18.8,8.5,67,66,57,30.17,29.74,14,4,14,0.00
2014-2-17,47.4,25.5,15.7,17.2,9.1,-28.7,66,51,28,30.80,27.75,17,4,17,0.15
2014-2-18,39.7,30.3,22.4,31.4,22.7,10.8,82,73,61,30.42,30.02,8,1,8,0.01
2014-2-19,40.8,34.7,24.7,36.1,29.2,18.3,88,80,70,30.14,29.76,21,1,21,0.18
2014-2-20,51.7,41.3,33.6,35.8,31.9,26.9,86,70,51,30.31,30.02,20,3,20,0.31
2014-2-21,42.6,38.2,35.6,40.6,35.1,31.5,94,89,85,30.13,29.73,9,1,9,0.20
2014-2-22,66.4,41.3,31.4,53.4,30.8,27.2,86,68,41,30.11,29.98,17,4,17,0.01
2014-2-23,42.6,42.0,38.3,32.7,31.7,31.6,79,67,65,30.04,29.90,2,2,3,0.00
2014-2-24,40.7,33.3,24.7,32.3,14.0,8.5,79,45,33,30.23,29.90,20,5,20,0.00
2014-2-25,26.5,24.2,22.6,14.4,12.6,7.5,67,61,49,30.24,30.13,9,2,9,0.00
2014-2-26,26.5,23.4,19.9,13.7,10.4,4.4,59,57,52,30.15,29.96,4,2,4,0.01
2014-2-27,37.4,22.8,12.2,16.8,5.7,-11.8,66,49,29,30.17,29.68,0,0,0,0.00
2014-2-28,29.7,19.2,9.0,9.7,-0.8,-11.6,62,42,27,30.55,30.17,0,0,0,0.00
2014-3-1,64.8,27.5,-33.3,24.6,13.5,-47.5,65,56,43,31.18,26.45,0,0,0,0.00
2014-3-2,36.0,32.0,27.7,24.6,19.0,14.2,63,58,54,30.27,30.10,8,2,8,0.00
2014-3-3,27.9,22.0,19.4,15.0,5.0,-2.2,62,48,35,30.36,30.11,4,0,4,0.00
2014-3-4,21.1,21.1,21.1,3.9,3.9,3.9,47,47,47,30.36,30.36,0,0,0,0.00
2014-3-5,21.1,21.1,21.1,3.9,3.9,3.9,47,47,47,30.36,30.36,0,0,0,0.00
2014-3-6,21.1,21.1,21.1,3.9,3.9,3.9,47,47,47,30.36,30.36,0,0,0,0.00
2014-3-7,21.1,21.1,21.1,3.9,3.9,3.9,47,47,47,30.36,30.36,0,0,0,0.00
2014-3-8,21.1,21.1,21.1,3.9,3.9,3.9,47,47,47,30.36,30.36,0,0,0,0.00
2014-3-9,36.7,32.0,21.1,24.7,18.3,3.9,65,57,47,30.36,30.01,0,0,0,0.00
2014-3-10,51.8,40.9,33.7,34.2,29.5,22.9,74,64,47,30.00,29.67,10,1,10,0.00
2014-3-11,65.3,47.0,33.9,38.5,33.6,28.8,84,63,33,29.75,29.61,13,2,13,0.00
2014-3-12,50.4,42.5,30.1,42.4,35.5,25.2,89,77,61,29.75,29.09,16,0,16,0.16
2014-3-13,31.1,24.7,16.5,25.6,7.4,-1.2,83,49,29,29.91,29.25,24,7,24,0.00
2014-3-14,42.7,33.0,20.8,28.6,15.8,2.6,68,49,37,30.30,29.91,21,6,21,0.01
2014-3-15,43.0,41.8,40.3,26.5,25.7,24.6,55,53,51,30.07,30.06,4,0,4,0.01
2014-3-16,40.2,33.8,28.5,25.8,15.8,9.7,58,48,39,30.26,30.07,4,0,4,0.00
2014-3-17,34.8,34.8,34.8,13.4,13.4,13.4,41,41,41,30.26,30.26,0,0,0,0.00
2014-3-19,44.4,37.8,28.6,36.1,30.5,19.1,89,75,59,30.42,29.94,5,0,5,0.64
2014-3-20,56.7,44.7,37.7,40.8,33.2,26.4,92,67,38,29.97,29.78,4,0,4,0.06
2014-3-21,53.1,43.1,36.7,27.7,23.6,20.2,68,48,31,30.07,29.95,0,0,0,0.00
2014-3-22,45.7,45.7,45.7,22.7,22.7,22.7,40,40,40,30.06,30.06,0,0,0,0.00
2014-3-23,45.7,32.4,25.9,22.7,10.0,4.4,42,39,36,30.23,30.06,13,5,13,0.00
2014-3-24,39.7,29.7,21.0,11.3,5.8,2.5,52,37,27,30.32,30.17,14,4,14,0.00
2014-3-25,32.5,32.5,32.5,5.1,5.1,5.1,31,31,31,30.19,30.19,2,1,2,0.00
2014-3-26,32.5,31.0,22.9,5.1,4.5,0.2,44,32,28,30.28,30.08,13,2,13,0.00
2014-3-27,46.1,34.8,21.3,28.9,14.6,4.2,65,44,27,30.49,30.28,18,5,18,0.00
2014-3-28,46.8,41.7,37.4,44.2,33.5,21.9,92,73,50,30.32,30.03,10,1,12,0.09
2014-3-29,49.1,46.3,42.0,45.6,42.2,38.1,94,86,71,30.29,29.81,14,2,14,1.25
2014-3-30,45.7,43.1,38.3,44.0,40.1,34.1,94,89,84,29.81,29.59,24,8,24,0.39
2014-3-31,52.1,42.6,35.8,36.8,33.1,27.3,87,70,55,30.15,29.77,21,7,21,0.06
2014-4-1,61.3,47.7,37.2,39.6,32.7,26.8,67,57,38,30.22,30.03,12,1,12,0.00
2014-4-2,53.8,48.6,46.2,42.3,38.3,37.6,78,68,64,30.14,30.10,2,2,2,0.00
2014-4-3,46.2,46.2,46.2,39.7,39.7,39.7,78,78,78,30.14,30.14,1,1,1,0.00
2014-4-4,46.2,46.2,46.2,39.7,39.7,39.7,78,78,78,30.14,30.14,1,1,1,0.00
2014-4-7,47.5,46.4,45.4,45.5,43.9,42.3,93,91,89,29.94,29.80,1,0,1,1.46
2014-4-8,51.3,48.2,47.1,47.0,43.5,35.4,96,85,55,29.79,29.50,4,0,4,0.14
2014-4-9,66.3,51.4,38.7,42.0,31.6,16.5,82,50,27,30.10,29.68,18,4,18,0.00
2014-4-10,63.1,48.7,34.1,39.7,31.6,17.5,70,53,31,30.28,30.08,25,6,25,0.00
2014-4-11,72.4,57.0,49.5,53.3,44.5,36.8,89,64,43,30.11,29.99,13,3,13,0.06
2014-4-12,75.3,59.6,44.8,50.1,43.9,36.3,90,62,25,30.30,30.08,12,2,12,0.01
2014-4-13,77.4,62.9,45.9,58.2,50.7,39.5,79,65,50,30.25,30.03,9,2,9,0.01
2014-4-14,76.5,63.8,56.0,58.3,53.9,50.7,85,71,51,30.43,29.89,22,4,22,0.00
2014-4-15,59.1,52.4,35.4,57.1,49.6,31.3,97,90,80,30.85,29.57,24,4,24,1.36
2014-4-16,49.3,39.7,30.1,31.5,21.5,16.0,87,50,31,30.73,29.97,16,3,16,0.04
2014-4-17,56.2,43.7,33.7,31.7,25.0,17.7,71,49,31,30.96,30.66,1,0,1,0.00
2014-4-18,52.1,41.2,33.5,34.5,29.9,26.3,78,65,48,30.69,30.52,5,1,5,0.00
2014-4-19,52.1,52.1,52.1,34.5,34.5,34.5,51,51,51,30.52,30.52,0,0,0,0.00
2014-4-27,54.5,51.5,48.9,39.6,38.4,36.4,69,61,51,30.20,30.10,8,2,8,0.00
2014-4-28,68.5,55.5,43.3,42.5,37.9,-52.6,77,54,30,30.33,26.74,40,5,40,0.00
2014-4-29,54.2,48.4,44.0,42.6,40.2,38.7,84,73,64,30.52,30.21,18,8,18,0.06
2014-4-30,48.2,44.2,41.2,46.2,41.5,37.9,94,90,83,30.51,30.07,13,3,13,1.98
2014-5-1,76.8,59.7,48.2,64.0,53.1,46.2,98,82,43,30.08,29.71,13,2,13,0.15
2014-5-2,70.0,70.0,70.0,51.5,51.5,51.5,52,52,52,29.71,29.71,5,5,5,0.15
2014-5-3,70.0,70.0,70.0,51.5,51.5,51.5,52,52,52,29.71,29.71,5,5,5,0.15
2014-5-4,70.0,58.9,52.7,51.5,36.0,-62.7,52,43,32,30.18,26.85,15,5,15,0.15
2014-5-5,72.5,59.8,49.3,41.1,36.7,28.3,67,44,26,29.96,29.83,27,5,27,0.00
2014-5-6,73.5,58.7,49.6,45.3,36.4,-65.7,66,45,27,31.58,29.94,20,4,20,0.00
2014-5-7,74.0,60.8,48.1,48.0,39.9,30.7,68,47,29,30.31,30.15,15,3,15,0.00
2014-5-8,59.3,55.5,51.9,55.8,51.3,43.5,94,86,68,30.25,30.16,8,1,8,0.23
2014-5-9,61.6,58.5,55.3,59.8,56.7,53.0,96,94,90,30.27,30.07,13,0,13,0.28
2014-5-10,80.4,67.0,58.5,70.1,61.6,56.7,97,84,62,30.19,29.83,13,2,13,0.01
2014-5-11,85.5,69.8,52.0,62.0,48.1,39.4,92,52,24,30.25,29.86,13,2,13,0.02
2014-5-12,89.9,67.6,52.7,63.7,54.5,45.6,81,65,32,30.19,30.07,5,1,5,0.00
2014-5-13,75.5,65.7,58.4,60.3,52.4,44.9,89,64,40,31.11,30.07,12,3,12,0.00
2014-5-14,80.5,61.4,6.6,73.7,52.5,-41.7,90,74,53,30.77,27.28,18,4,18,0.00
2014-5-15,82.0,62.6,59.5,63.9,61.1,-33.7,98,95,89,30.57,25.09,40,0,40,0.34
2014-5-16,66.3,64.5,62.8,65.4,63.4,62.1,99,96,93,30.15,29.88,23,7,23,0.39
2014-5-17,64.7,64.7,64.7,63.8,63.8,63.8,97,97,97,29.90,29.90,1,1,1,0.39
2014-5-18,64.7,59.1,53.4,63.8,50.0,35.3,97,74,51,30.22,29.90,6,1,6,0.39
2014-5-19,74.4,60.8,45.1,47.3,41.3,35.8,74,51,29,30.28,30.11,33,1,33,0.00
2014-5-20,85.9,67.5,53.5,53.1,46.5,40.3,70,50,26,30.19,30.01,22,2,14,0.00
2014-5-21,80.5,69.1,59.4,59.1,54.3,45.8,76,60,38,30.05,29.94,13,2,13,0.00
2014-5-22,65.4,60.7,58.7,60.2,57.7,55.8,97,90,73,29.98,29.86,13,2,13,0.24
2014-5-23,92.0,62.4,57.9,64.0,59.1,56.7,97,89,69,30.00,29.90,9,1,9,0.22
2014-5-24,73.2,62.8,56.6,61.6,57.0,53.8,94,82,62,30.97,29.98,8,2,8,0.02
2014-5-25,86.8,74.6,63.2,66.2,57.8,52.8,75,58,33,30.29,30.05,20,1,20,0.02
2014-5-26,93.6,73.2,57.0,62.9,57.1,51.5,87,62,29,30.78,29.92,12,2,12,0.00
2014-5-27,92.0,73.9,61.7,67.8,62.5,55.8,84,69,41,29.95,29.78,9,1,9,0.00
2014-5-28,72.9,59.0,53.1,64.6,54.3,46.6,93,84,75,30.84,29.84,12,3,12,0.00
2014-5-29,72.9,61.3,48.1,53.2,47.3,43.3,85,63,40,30.30,30.19,16,4,16,0.00
2014-5-30,81.3,71.3,53.8,58.1,53.6,46.3,78,55,38,30.21,30.02,12,3,12,0.04
2014-5-31,71.9,71.9,71.9,57.7,57.7,57.7,61,61,61,30.06,30.06,5,5,5,0.04
2014-6-1,81.3,70.8,59.6,57.7,49.9,43.1,61,49,29,30.35,30.06,5,1,5,0.04
2014-6-2,83.5,69.3,52.6,65.5,55.6,45.0,81,63,46,30.33,30.06,13,2,13,0.00
2014-6-3,94.0,72.9,60.0,75.5,64.9,55.8,95,78,50,30.08,29.85,14,1,14,0.46
2014-6-4,85.2,72.8,62.9,69.7,64.6,59.6,98,77,52,29.92,29.78,5,1,5,0.10
2014-6-5,77.3,66.3,61.5,66.1,60.8,52.5,97,83,64,30.66,29.70,12,1,12,0.74
2014-6-6,80.6,67.5,57.0,60.7,54.8,50.1,81,65,44,30.01,29.84,43,2,43,0.00
2014-6-7,90.3,71.0,56.3,64.6,58.6,-31.4,88,68,39,31.42,25.89,46,2,46,0.00
2014-6-8,88.0,68.9,58.4,67.1,59.6,54.3,89,74,47,30.06,29.99,4,1,4,0.00
2014-6-9,86.8,86.8,86.8,65.9,65.9,65.9,50,50,50,30.06,30.06,2,2,2,0.00
2014-6-10,86.8,86.8,86.8,65.9,65.9,65.9,50,50,50,30.06,30.06,2,2,2,0.00
2014-6-11,86.8,86.8,86.8,65.9,65.9,65.9,50,50,50,30.06,30.06,2,2,2,0.00
2014-6-12,86.8,86.8,86.8,65.9,65.9,65.9,50,50,50,30.06,30.06,2,2,2,0.00
2014-6-13,86.8,77.9,67.2,67.4,66.2,65.9,98,72,50,30.06,29.83,2,1,2,0.03
2014-6-14,80.7,67.3,59.0,66.7,59.9,50.9,98,79,47,30.75,29.83,7,0,7,0.01
2014-6-15,86.3,66.0,57.2,64.1,57.0,51.8,86,74,43,30.15,30.07,13,1,13,0.00
2014-6-16,90.5,72.9,58.6,68.9,61.7,55.1,92,70,43,30.22,30.09,12,1,12,0.00
2014-6-17,93.5,76.9,63.8,75.5,67.1,59.6,89,73,53,30.12,29.95,2,0,2,0.00
2014-6-18,80.3,75.9,71.7,72.4,68.3,65.5,82,77,75,30.03,29.95,4,0,4,0.00
2014-6-19,78.0,72.0,66.0,72.4,68.0,64.2,96,87,79,30.43,30.00,5,0,5,0.67
2014-6-20,74.3,74.3,74.3,72.4,72.4,72.4,94,94,94,30.27,30.27,0,0,0,0.03
2014-6-21,74.3,68.5,65.7,72.4,59.5,56.3,94,73,67,30.61,29.93,10,1,10,0.67
2014-6-22,88.3,71.3,59.3,63.8,58.5,53.8,87,67,36,30.10,29.50,12,2,12,0.00
2014-6-23,87.8,71.7,57.6,67.4,60.2,52.8,89,69,42,30.93,30.08,15,4,15,0.00
2014-6-24,86.7,72.5,61.4,68.8,62.4,56.2,85,72,46,30.21,30.06,20,5,20,0.00
2014-6-25,85.5,74.0,64.2,74.8,68.5,59.2,95,83,70,30.07,29.87,16,5,16,0.09
2014-6-26,86.8,76.8,70.2,75.0,70.5,-24.0,96,82,65,30.02,26.03,6,0,6,0.06
2014-6-27,91.5,79.1,69.0,70.6,65.3,55.7,89,66,35,30.18,30.02,6,1,6,0.00
2014-6-28,95.5,86.9,80.0,67.4,64.0,58.3,61,49,31,30.31,30.17,2,1,2,0.00
2014-6-29,89.1,75.0,61.3,71.7,64.2,58.0,90,71,52,30.46,30.17,16,4,16,0.00
2014-6-30,91.3,75.6,61.6,71.8,63.9,56.3,84,69,45,30.18,29.99,12,2,12,0.00
2014-7-1,82.6,82.6,82.6,70.9,70.9,70.9,68,68,68,30.00,30.00,4,4,4,0.00
2014-7-2,82.6,79.3,75.2,73.9,72.2,70.9,95,80,68,30.00,29.94,4,2,4,0.00
2014-7-3,91.7,77.9,69.9,80.0,74.1,68.3,100,89,68,30.14,29.91,8,0,8,1.91
2014-7-4,70.1,67.8,64.5,68.6,65.3,56.7,100,92,77,31.66,29.94,14,1,14,0.11
2014-7-5,88.5,72.8,60.6,61.9,57.0,17.4,77,61,33,30.87,30.05,18,3,18,0.11
2014-7-6,95.4,76.2,58.8,66.7,60.9,54.8,91,64,31,30.14,29.80,9,2,9,0.00
2014-7-7,97.7,80.7,68.9,75.3,68.9,62.9,87,69,43,29.99,29.76,12,2,12,0.13
2014-7-8,96.7,80.3,68.9,79.2,72.4,66.7,94,79,51,29.89,29.68,12,1,12,0.24
2014-7-9,94.3,79.8,68.2,74.2,69.9,65.7,94,75,45,29.93,29.79,12,2,12,0.07
2014-7-10,79.6,79.6,79.6,72.8,72.8,72.8,80,80,80,29.88,29.88,3,3,3,0.07
2014-7-11,89.1,75.4,71.3,72.8,66.9,64.2,89,75,65,30.25,29.88,4,1,4,0.07
2014-7-12,89.8,76.5,63.8,71.6,66.7,60.8,93,74,52,30.52,30.18,17,4,17,0.07
2014-7-13,80.3,77.5,75.4,75.0,72.6,67.9,93,86,66,30.20,29.92,13,5,13,0.13
2014-7-14,81.1,75.0,69.7,75.5,72.2,67.9,98,91,79,29.98,29.88,12,1,12,0.39
2014-7-15,83.2,76.8,71.9,77.6,74.0,71.0,98,91,81,29.89,29.76,10,2,10,0.61
2014-7-16,83.7,72.4,65.7,72.9,67.9,62.0,99,87,60,29.93,29.78,8,1,8,2.58
2014-7-17,85.0,72.3,63.4,69.0,62.4,57.8,89,73,51,30.16,29.93,6,1,6,0.00
2014-7-18,86.3,71.8,59.8,66.7,61.1,56.5,92,72,42,30.43,30.16,36,1,36,0.00
2014-7-19,81.9,70.3,61.7,67.7,62.0,57.3,89,76,53,30.55,30.24,4,0,4,0.00
2014-7-20,85.5,71.7,63.0,67.9,63.4,58.7,91,76,54,30.24,30.15,10,2,10,0.01
2014-7-21,89.9,74.6,59.9,70.6,65.1,56.8,93,74,50,30.25,30.17,7,0,7,0.00
2014-7-22,94.5,78.8,65.4,75.9,70.2,62.9,93,77,52,30.22,30.07,5,0,5,0.00
2014-7-23,101.7,80.4,69.6,88.7,72.9,-19.7,91,79,58,30.43,29.62,12,0,12,0.01
2014-7-24,83.8,74.6,66.9,71.6,65.6,58.1,93,75,52,29.97,29.83,8,1,8,0.00
2014-7-25,86.7,74.4,62.6,67.2,60.2,55.3,82,63,42,30.10,29.97,5,0,5,0.00
2014-7-26,76.8,72.7,69.6,69.5,67.6,66.1,89,84,75,30.02,29.93,4,0,4,0.00
2014-7-27,85.0,74.3,68.5,76.5,70.3,65.5,95,88,75,29.95,29.69,4,0,4,0.10
2014-7-28,89.0,76.2,65.5,73.2,67.6,60.1,94,76,55,29.71,29.52,6,0,6,0.17
2014-7-29,83.7,70.1,61.3,62.3,59.2,55.7,83,70,45,30.01,29.71,0,0,0,0.00
2014-7-30,87.5,71.3,59.3,64.8,59.4,55.2,87,69,37,30.09,30.01,1,0,1,0.00
2014-7-31,88.8,71.7,58.7,68.8,62.8,55.4,90,76,46,30.19,30.09,5,0,5,0.00
2014-8-1,87.7,72.8,64.0,74.5,67.4,61.1,96,84,63,30.26,30.19,1,0,1,0.02
2014-8-2,81.3,71.0,66.6,68.1,65.7,63.0,97,84,60,30.25,30.15,9,0,9,0.02
2014-8-3,80.8,70.4,64.4,69.1,65.5,62.3,96,85,65,30.18,30.07,4,0,4,0.02
2014-8-4,89.0,75.9,65.7,72.9,68.0,63.0,94,78,55,30.11,30.04,1,0,1,0.00
2014-8-5,93.3,77.9,64.6,74.2,68.4,62.1,94,75,46,30.11,29.94,0,0,0,0.17
2014-8-6,88.7,74.1,65.2,69.6,66.0,60.2,94,78,48,29.98,29.87,5,0,5,0.01
2014-8-7,88.5,73.2,62.8,65.5,59.7,55.4,84,65,40,30.07,29.94,1,0,1,0.00
2014-8-8,86.6,72.4,59.9,66.4,60.3,55.4,90,68,41,30.16,30.06,0,0,0,0.00
2014-8-9,93.3,74.5,30.8,73.6,61.1,-30.1,100,67,34,31.88,25.33,52,0,52,0.00
2014-8-10,91.8,75.3,61.2,69.1,62.1,56.3,87,67,34,30.23,30.13,5,2,5,0.00
2014-8-11,90.6,76.0,61.9,68.2,62.5,58.6,90,66,41,30.50,30.14,5,0,5,0.00
2014-8-12,78.8,78.8,78.8,61.2,61.2,61.2,55,55,55,30.14,30.14,0,0,0,0.00
2014-8-13,78.8,78.8,78.8,61.2,61.2,61.2,55,55,55,30.14,30.14,0,0,0,0.00
2014-8-14,78.8,78.8,78.8,61.2,61.2,61.2,55,55,55,30.14,30.14,0,0,0,0.00
2014-8-15,78.8,78.8,78.8,61.2,61.2,61.2,55,55,55,30.14,30.14,0,0,0,0.00
2014-8-16,78.8,67.9,64.3,61.2,58.8,57.3,79,73,55,30.14,29.95,0,0,0,0.00
2014-8-17,93.5,72.0,34.0,79.5,60.6,-36.3,89,69,46,30.56,25.00,0,0,0,0.00
2014-8-18,87.2,70.7,58.9,62.8,58.9,54.4,87,68,41,29.98,29.86,0,0,0,0.00
2014-8-19,87.0,71.6,53.4,65.4,58.7,48.6,88,67,34,30.00,29.92,8,0,8,0.00
2014-8-20,85.7,73.7,63.7,71.0,65.8,60.8,96,78,59,30.08,29.99,4,0,4,0.00
2014-8-21,82.7,71.9,65.6,70.0,65.6,62.0,94,81,60,30.14,30.04,6,0,6,0.18
2014-8-22,77.0,69.6,66.6,66.8,65.0,60.5,97,86,65,30.67,30.06,9,0,9,0.06
2014-8-23,71.9,71.9,71.9,63.1,63.1,63.1,74,74,74,30.67,30.67,0,0,0,0.06
2014-8-24,84.2,80.8,71.9,66.6,65.9,63.1,74,61,54,30.67,30.15,10,0,10,0.06
2014-8-25,81.5,81.5,81.5,66.2,66.2,66.2,60,60,60,30.15,30.15,1,0,2,0.00
2014-8-26,81.5,81.5,81.5,66.2,66.2,66.2,60,60,60,30.15,30.15,1,0,2,0.00
2014-8-27,81.5,81.5,81.5,66.2,66.2,66.2,60,60,60,30.15,30.15,1,0,2,0.00
2014-8-28,81.5,81.5,81.5,66.2,66.2,66.2,60,60,60,30.15,30.15,1,0,2,0.00
2014-8-29,81.5,81.5,81.5,66.2,66.2,66.2,60,60,60,30.15,30.15,1,0,2,0.00
2014-8-30,81.5,81.5,81.5,66.2,66.2,66.2,60,60,60,30.15,30.15,1,0,2,0.00
2014-8-31,87.6,79.0,71.8,76.8,70.2,66.2,96,76,60,30.15,29.99,8,0,8,0.51
2014-9-1,87.8,77.2,69.5,78.8,73.1,68.0,98,88,70,30.13,29.95,4,0,4,0.01
2014-9-2,92.5,81.7,69.7,79.9,74.7,68.2,97,80,63,29.98,29.80,4,0,4,0.00
2014-9-3,88.5,76.5,67.0,71.3,65.0,61.1,86,69,43,30.18,29.83,0,0,0,0.00
2014-9-4,88.2,74.4,60.3,68.8,63.5,57.3,91,71,43,30.26,30.14,8,0,8,0.00
2014-9-5,88.6,76.9,65.3,76.7,70.2,62.3,92,81,64,30.28,30.05,1,0,1,0.00
2014-9-6,93.0,79.1,71.5,78.6,73.1,69.0,96,83,55,30.07,29.84,5,0,5,0.34
2014-9-7,72.5,70.0,60.9,69.7,66.4,55.4,91,89,80,30.26,29.96,0,0,0,0.34
2014-9-8,80.3,68.7,58.7,61.7,58.1,54.2,89,70,48,30.75,30.25,6,0,6,0.00
2014-9-9,74.3,66.1,59.5,63.7,59.3,54.1,85,79,67,30.36,30.21,7,1,7,0.00
2014-9-10,81.3,70.3,59.5,65.1,60.5,55.8,88,73,49,30.54,30.06,9,0,9,0.00
2014-9-11,79.3,71.5,66.7,72.5,66.4,58.7,92,84,72,30.29,29.85,2,0,2,0.00
2014-9-12,75.7,66.9,60.1,60.2,55.5,50.4,80,68,51,31.56,30.01,0,0,0,0.00
2014-9-13,63.9,60.0,55.6,60.4,54.7,48.1,95,83,71,30.28,30.15,7,0,7,0.13
2014-9-14,70.8,60.0,53.1,53.8,51.1,48.3,90,74,48,30.39,30.21,8,2,8,0.01
2014-9-15,75.3,60.7,51.2,54.3,49.5,45.5,87,69,39,30.31,30.13,8,2,8,0.00
2014-9-16,71.0,60.4,54.3,62.3,55.7,49.5,95,85,67,30.13,30.01,4,0,4,0.14
2014-9-17,73.8,60.2,46.2,55.6,50.7,41.9,92,74,42,30.12,30.00,2,0,2,0.01
2014-9-18,77.3,61.5,46.5,57.4,51.4,43.2,93,72,40,30.18,30.01,1,0,1,0.00
2014-9-19,69.5,59.4,45.1,52.4,47.9,35.8,81,67,43,30.46,30.18,0,0,0,0.00
2014-9-20,72.4,63.9,54.4,64.4,57.4,50.3,89,80,68,30.41,30.12,2,0,2,0.00
2014-9-21,95.5,68.0,62.8,70.1,65.2,59.1,98,91,82,30.68,29.65,6,0,6,0.01
2014-9-22,76.0,63.9,53.1,64.4,52.3,42.2,93,68,45,30.21,29.66,6,0,6,0.00
2014-9-23,72.1,58.3,43.2,54.9,48.2,34.6,85,70,48,30.48,30.21,0,0,0,0.00
2014-9-24,74.3,62.1,51.8,58.2,53.4,48.1,91,75,53,30.64,30.48,1,0,1,0.00
2014-9-25,65.2,61.3,59.4,57.5,55.0,50.5,86,80,72,30.56,30.28,0,0,0,0.02
2014-9-26,80.8,66.0,55.4,59.6,55.8,50.8,87,71,44,30.42,30.20,0,0,0,0.01
2014-9-27,61.5,61.5,61.5,55.9,55.9,55.9,82,82,82,30.25,30.25,0,0,0,0.00
2014-9-28,61.5,61.5,61.5,55.9,55.9,55.9,82,82,82,30.25,30.25,0,0,0,0.00
2014-9-29,68.5,62.3,61.5,63.1,56.9,55.9,88,83,82,30.25,29.97,4,0,4,0.00
2014-9-30,70.7,65.8,61.7,64.5,61.4,57.4,96,86,76,30.08,29.97,10,2,10,0.00
2014-10-1,66.6,62.7,60.4,60.6,58.4,56.6,91,86,80,30.19,30.04,5,1,5,0.00
2014-10-2,72.2,63.6,58.7,60.6,57.9,56.1,92,83,65,30.26,30.14,9,1,9,0.01
2014-10-3,73.5,63.1,53.0,58.9,54.1,-34.3,93,74,48,30.19,29.91,15,4,15,0.00
2014-10-4,65.5,60.3,48.3,63.0,56.9,5.5,99,89,71,29.92,27.05,10,3,10,0.97
2014-10-5,64.1,52.1,40.6,45.6,40.2,32.6,83,65,38,30.06,29.73,13,3,13,0.00
2014-10-6,70.3,56.1,41.3,56.5,48.4,37.6,91,77,47,30.54,30.05,23,6,23,0.00
2014-10-7,76.3,64.6,55.6,61.6,57.2,51.6,91,78,51,30.12,29.94,12,1,12,0.02
2014-10-8,74.5,63.9,55.0,62.6,55.5,47.1,96,76,45,30.02,29.78,17,1,17,0.67
2014-10-9,72.5,57.7,46.0,48.3,45.6,40.5,85,67,37,30.19,29.96,4,0,4,0.00
2014-10-10,75.2,57.1,50.1,49.1,44.0,37.3,82,63,42,30.24,29.79,13,1,23,0.58
2014-10-11,55.2,51.5,48.0,50.5,47.9,39.0,94,88,81,30.36,30.12,10,0,10,0.18
2014-10-12,64.5,51.9,43.9,46.8,44.1,39.6,94,77,46,30.74,30.23,10,1,10,0.00
2014-10-13,62.2,54.2,41.9,57.7,50.5,38.6,95,87,78,30.47,30.30,7,0,7,0.02
2014-10-14,71.9,65.6,59.2,68.0,62.8,57.7,99,91,80,30.35,30.15,14,1,14,0.01
2014-10-15,74.5,70.3,67.6,69.7,68.0,64.9,100,92,84,30.15,29.89,23,5,23,0.51
2014-10-16,69.7,66.8,57.6,69.3,64.8,55.8,100,94,75,29.89,29.70,18,3,18,0.58
2014-10-17,73.2,62.5,57.4,58.6,56.1,53.8,95,81,56,29.85,29.69,1,0,1,0.00
2014-10-18,68.6,59.1,54.8,59.6,53.4,45.6,94,82,62,30.08,29.58,4,0,4,0.00
2014-10-19,57.9,50.8,41.3,54.8,38.1,30.0,100,63,44,30.12,29.73,4,0,4,0.00
2014-10-20,58.7,48.1,39.1,44.2,38.8,32.1,83,71,52,30.18,30.01,0,0,0,0.00
2014-10-21,61.2,53.9,48.1,56.0,50.2,43.6,94,88,78,30.16,29.89,0,0,0,0.02
2014-10-22,54.5,52.5,49.5,52.6,50.3,47.5,96,92,85,30.10,29.81,0,0,0,0.02
2014-10-23,51.8,50.0,48.3,48.2,47.3,46.1,94,91,86,29.91,29.76,10,0,10,0.02
2014-10-24,60.6,52.8,48.2,50.4,47.4,44.9,91,82,66,29.92,29.81,0,0,0,0.00
2014-10-25,67.1,54.7,45.6,51.4,46.7,41.3,92,76,50,29.91,29.61,2,0,2,0.00
2014-10-26,53.2,53.2,53.2,48.8,48.8,48.8,85,85,85,29.62,29.62,1,1,0,0.00
2014-10-27,53.2,53.2,53.2,48.8,48.8,48.8,85,85,85,29.62,29.62,1,1,0,0.00
2014-10-28,53.2,53.2,53.2,48.8,48.8,48.8,85,85,85,29.62,29.62,1,1,0,0.00
2014-10-29,53.2,53.2,53.2,48.8,48.8,48.8,85,85,85,29.62,29.62,1,1,0,0.00
2014-10-30,53.2,53.2,53.2,48.8,48.8,48.8,85,85,85,29.62,29.62,1,1,0,0.00
2014-10-31,53.2,53.2,53.2,48.8,48.8,48.8,85,85,85,29.62,29.62,1,1,0,0.00
2014-11-1,53.2,47.3,41.0,48.8,40.1,35.9,85,76,66,30.01,29.62,1,0,0,0.00
2014-11-2,68.8,43.0,40.1,36.2,31.6,-24.0,84,65,43,30.69,29.59,1,0,7,0.09
2014-11-3,51.1,51.1,51.1,30.4,30.4,30.4,45,45,45,30.69,30.69,0,0,0,0.00
2014-11-4,51.1,51.1,51.1,30.4,30.4,30.4,45,45,45,30.69,30.69,0,0,0,0.00
2014-11-5,51.1,51.1,51.1,30.4,30.4,30.4,45,45,45,30.69,30.69,0,0,0,0.00
2014-11-6,51.1,51.1,51.1,30.4,30.4,30.4,45,45,45,30.69,30.69,0,0,0,0.00
2014-11-7,51.1,51.1,51.1,30.4,30.4,30.4,45,45,45,30.69,30.69,0,0,0,0.00
2014-11-8,51.1,51.1,51.1,30.4,30.4,30.4,45,45,45,30.69,30.69,0,0,0,0.00
2014-11-9,51.1,51.1,51.1,30.4,30.4,30.4,45,45,45,30.69,30.69,0,0,0,0.00
2014-11-10,51.1,51.1,51.1,30.4,30.4,30.4,45,45,45,30.69,30.69,0,0,0,0.00
2014-11-11,51.1,51.1,51.1,30.4,30.4,30.4,45,45,45,30.69,30.69,0,0,0,0.00
2014-11-12,51.1,51.1,51.1,30.4,30.4,30.4,45,45,45,30.69,30.69,0,0,0,0.00
2014-11-13,51.1,51.1,51.1,30.4,30.4,30.4,45,45,45,30.69,30.69,0,0,0,0.00
2014-11-14,51.1,51.1,51.1,30.4,30.4,30.4,45,45,45,30.69,30.69,0,0,0,0.00
2014-11-15,51.1,51.1,51.1,30.4,30.4,30.4,45,45,45,30.69,30.69,0,0,0,0.00
2014-11-16,51.1,43.4,42.7,36.6,34.7,30.4,79,72,45,30.69,30.18,2,0,2,0.00
2014-11-17,47.1,43.3,39.4,45.1,40.0,36.1,93,88,79,30.18,29.54,6,0,6,0.76
2014-11-18,45.4,33.9,18.3,40.5,19.4,-3.7,84,56,36,30.42,29.64,7,0,7,0.00
2014-11-19,34.7,32.1,25.0,31.4,18.5,8.7,94,57,49,30.49,30.12,0,0,0,0.00
2014-11-20,47.2,37.4,31.7,28.1,23.3,12.9,70,57,43,30.11,29.88,0,0,0,0.00
2014-11-21,38.9,32.4,28.5,19.9,16.3,12.4,67,52,38,30.58,30.08,0,0,0,0.00
2014-11-22,44.0,36.1,25.1,29.6,22.5,16.0,72,59,40,30.58,30.24,0,0,0,0.00
2014-11-23,53.7,45.7,40.8,38.0,33.5,27.2,76,63,46,30.26,30.08,0,0,0,0.00
2014-11-24,63.2,56.7,44.9,60.8,54.1,37.3,99,91,75,30.10,29.59,12,0,12,0.98
2014-11-25,58.9,52.1,40.6,56.4,42.0,33.9,93,70,46,30.22,29.78,0,0,0,0.00
2014-11-26,45.0,37.9,33.2,37.4,32.6,21.8,90,82,61,30.56,29.87,0,0,0,0.73
2014-11-27,34.1,33.9,33.9,21.8,21.8,21.8,61,61,61,30.10,29.88,0,0,0,0.73
2014-11-28,33.9,33.9,33.9,21.8,21.8,21.8,61,61,61,30.10,30.10,0,0,0,0.73
2014-11-29,37.3,36.5,33.9,30.7,28.6,21.8,77,73,61,30.48,30.10,0,0,0,0.73
2014-11-30,65.2,41.9,36.7,39.0,35.6,1.0,83,78,68,30.76,30.13,0,0,0,0.12
2014-12-1,56.9,46.1,39.4,48.3,39.3,26.5,87,78,63,30.58,30.12,0,0,0,0.02
2014-12-2,39.9,36.6,32.0,36.8,26.8,18.4,89,68,53,30.73,30.40,0,0,0,0.18
2014-12-3,46.4,42.6,38.6,43.3,38.8,30.8,90,87,72,30.39,30.02,9,0,9,0.03
2014-12-4,45.9,38.7,34.3,31.6,28.0,23.1,79,66,45,30.67,30.28,2,0,2,0.00
2014-12-5,40.9,36.6,31.7,37.9,28.9,22.7,90,74,60,30.70,30.42,0,0,0,0.42
2014-12-6,45.4,42.0,39.0,43.0,39.2,35.7,93,90,88,30.42,30.17,14,1,14,0.71
2014-12-7,39.4,34.3,25.2,36.4,20.5,4.4,89,59,35,30.72,30.30,18,2,18,0.05
2014-12-8,33.9,28.2,23.1,26.8,16.1,2.5,76,61,39,30.82,30.46,8,0,8,0.00
2014-12-9,36.4,35.4,33.7,32.6,30.4,26.8,86,82,76,30.46,30.24,8,0,8,0.13
2014-12-10,36.4,36.4,36.4,32.6,32.6,32.6,86,86,86,30.24,30.24,1,1,1,0.13
2014-12-11,36.4,36.4,36.4,32.6,32.6,32.6,86,86,86,30.24,30.24,1,1,1,0.13
2014-12-12,36.4,36.4,36.4,32.6,32.6,32.6,86,86,86,30.24,30.24,1,1,1,0.13
2014-12-13,40.2,38.5,36.4,32.6,30.6,29.3,86,73,67,30.24,29.94,27,0,27,1.09
2014-12-14,44.1,39.5,35.7,34.7,32.7,30.4,83,77,66,30.04,29.93,6,0,6,0.00
2014-12-15,44.6,38.5,34.2,35.4,32.0,29.4,85,78,66,30.69,30.04,6,0,6,0.00
2014-12-16,44.3,39.6,33.0,41.8,35.4,28.4,91,85,80,30.36,29.91,4,0,4,0.17
2014-12-17,51.5,45.3,40.5,43.8,39.3,31.4,93,80,67,29.95,29.84,8,0,8,0.02
2014-12-18,44.2,39.3,28.5,31.6,28.5,18.5,72,65,54,30.39,29.92,8,0,8,0.00
2014-12-19,40.8,36.9,33.3,29.2,25.6,22.5,73,64,52,30.43,30.01,8,0,8,0.00
2014-12-20,34.2,31.0,29.1,25.3,21.8,20.1,70,69,66,30.39,30.27,4,0,4,0.00
2014-12-28,47.4,44.1,40.4,40.2,36.0,29.5,78,73,65,30.20,30.01,7,1,7,0.00
2014-12-29,44.0,38.2,32.7,33.3,26.7,23.0,85,64,46,30.64,30.14,4,0,4,0.00
2014-12-30,35.7,30.6,27.8,25.2,19.1,14.0,76,63,46,30.80,30.34,6,0,6,0.00
2014-12-31,34.7,30.1,25.1,20.5,17.3,11.2,71,59,43,30.44,30.25,0,0,0,0.00
2015-1-1,39.4,31.9,24.9,24.4,18.8,14.9,72,59,39,30.28,30.02,0,0,0,0.00
2015-1-2,43.7,35.4,30.3,26.9,24.5,21.2,75,65,44,30.54,30.06,0,0,0,0.00